AFL1022 UMBB-UMGG
Flight info
| Callsign | AFL1022 |
|---|---|
| Flight time | N/A |
| Altitude | 31000 |
| Route | DIVIM1B DIVIM DCT MASAD DCT GOWDA DCT BAGAM DCT BEREG DCT GOGER GOGER3D |
| Aircraft | A320/M-SDE3FGHIRWY/LB1 |
Departure
| Time | 2026-04-26 19:49 |
|---|---|
| Airport | Brest International Airport (UMBB) |
Arrival
| Time | N/A |
|---|---|
| Airport | Gomel Airport (UMGG) |
| Time | Latitude | Longitude | Altitude | Speed | Heading |
|---|---|---|---|---|---|
| 2026-04-26 19:34 | 52.11030 | 23.89899 | 458 ft | 0 kts | 114° |
| 2026-04-26 19:40 | 52.11032 | 23.89893 | 458 ft | 2 kts | 114° |
| 2026-04-26 19:40 | 52.11038 | 23.89870 | 458 ft | 2 kts | 114° |
| 2026-04-26 19:40 | 52.11045 | 23.89850 | 458 ft | 2 kts | 147° |
| 2026-04-26 19:40 | 52.11059 | 23.89845 | 458 ft | 1 kts | 195° |
| 2026-04-26 19:41 | 52.11064 | 23.89849 | 458 ft | 1 kts | 208° |
| 2026-04-26 19:41 | 52.11067 | 23.89851 | 458 ft | 0 kts | 204° |
| 2026-04-26 19:43 | 52.11063 | 23.89848 | 458 ft | 2 kts | 204° |
| 2026-04-26 19:43 | 52.11034 | 23.89828 | 458 ft | 6 kts | 202° |
| 2026-04-26 19:44 | 52.10979 | 23.89790 | 458 ft | 11 kts | 204° |
| 2026-04-26 19:44 | 52.10896 | 23.89729 | 458 ft | 14 kts | 204° |
| 2026-04-26 19:44 | 52.10799 | 23.89728 | 458 ft | 15 kts | 134° |
| 2026-04-26 19:44 | 52.10749 | 23.89900 | 458 ft | 18 kts | 113° |
| 2026-04-26 19:45 | 52.10705 | 23.90070 | 459 ft | 20 kts | 112° |
| 2026-04-26 19:45 | 52.10646 | 23.90285 | 459 ft | 21 kts | 114° |
| 2026-04-26 19:45 | 52.10583 | 23.90519 | 459 ft | 23 kts | 113° |
| 2026-04-26 19:45 | 52.10516 | 23.90773 | 460 ft | 25 kts | 115° |
| 2026-04-26 19:46 | 52.10444 | 23.91035 | 459 ft | 25 kts | 113° |
| 2026-04-26 19:46 | 52.10396 | 23.91229 | 458 ft | 0 kts | 94° |
| 2026-04-26 19:46 | 52.10397 | 23.91240 | 458 ft | 2 kts | 87° |
| 2026-04-26 19:46 | 52.10398 | 23.91274 | 458 ft | 6 kts | 86° |
| 2026-04-26 19:47 | 52.10387 | 23.91360 | 457 ft | 9 kts | 140° |
| 2026-04-26 19:47 | 52.10369 | 23.91362 | 457 ft | 8 kts | 199° |
| 2026-04-26 19:47 | 52.10369 | 23.91299 | 457 ft | 0 kts | 288° |
| 2026-04-26 19:48 | 52.10377 | 23.91267 | 458 ft | 16 kts | 291° |
| 2026-04-26 19:48 | 52.10534 | 23.90691 | 460 ft | 92 kts | 294° |
| 2026-04-26 19:49 | 52.10875 | 23.89427 | 488 ft | 147 kts | 296° |
| 2026-04-26 19:49 | 52.11286 | 23.87886 | 1099 ft | 149 kts | 297° |
| 2026-04-26 19:49 | 52.11744 | 23.86475 | 1965 ft | 138 kts | 321° |
| 2026-04-26 19:49 | 52.12604 | 23.86169 | 2775 ft | 138 kts | 6° |
| 2026-04-26 19:50 | 52.13479 | 23.86876 | 3377 ft | 153 kts | 26° |
| 2026-04-26 19:50 | 52.14215 | 23.88320 | 3776 ft | 188 kts | 56° |
| 2026-04-26 19:50 | 52.14267 | 23.90652 | 4183 ft | 226 kts | 94° |
| 2026-04-26 19:50 | 52.13741 | 23.93192 | 4632 ft | 251 kts | 106° |
| 2026-04-26 19:51 | 52.13005 | 23.95883 | 5073 ft | 273 kts | 109° |
| 2026-04-26 19:51 | 52.12180 | 23.98794 | 5685 ft | 289 kts | 108° |
| 2026-04-26 19:51 | 52.11356 | 24.01776 | 6582 ft | 292 kts | 107° |
| 2026-04-26 19:51 | 52.10781 | 24.04849 | 7470 ft | 284 kts | 85° |
| 2026-04-26 19:52 | 52.10897 | 24.07967 | 8367 ft | 277 kts | 72° |
| 2026-04-26 19:52 | 52.11229 | 24.11015 | 9214 ft | 280 kts | 70° |
| 2026-04-26 19:52 | 52.11583 | 24.14127 | 10028 ft | 285 kts | 71° |
| 2026-04-26 19:52 | 52.11766 | 24.15835 | 10472 ft | 288 kts | 71° |
| 2026-04-26 19:53 | 52.11993 | 24.18073 | 10884 ft | 297 kts | 72° |
| 2026-04-26 19:53 | 52.12318 | 24.21454 | 11312 ft | 316 kts | 72° |
| 2026-04-26 19:53 | 52.12504 | 24.23489 | 11606 ft | 324 kts | 73° |
| 2026-04-26 19:53 | 52.12823 | 24.27166 | 12317 ft | 331 kts | 73° |
| 2026-04-26 19:54 | 52.13131 | 24.30877 | 12847 ft | 335 kts | 72° |
| 2026-04-26 19:54 | 52.13440 | 24.34646 | 13098 ft | 336 kts | 72° |
| 2026-04-26 19:54 | 52.13744 | 24.38386 | 13114 ft | 335 kts | 72° |
| 2026-04-26 19:54 | 52.14052 | 24.42163 | 13117 ft | 335 kts | 72° |
| 2026-04-26 19:55 | 52.14357 | 24.45928 | 13114 ft | 335 kts | 72° |
| 2026-04-26 19:55 | 52.14660 | 24.49655 | 13118 ft | 335 kts | 73° |
| 2026-04-26 19:55 | 52.14966 | 24.53454 | 13115 ft | 336 kts | 73° |
| 2026-04-26 19:55 | 52.15266 | 24.57196 | 13119 ft | 336 kts | 72° |
| 2026-04-26 19:56 | 52.15568 | 24.60965 | 13120 ft | 337 kts | 73° |
| 2026-04-26 19:56 | 52.15870 | 24.64740 | 13121 ft | 337 kts | 73° |
| 2026-04-26 19:56 | 52.16167 | 24.68506 | 13116 ft | 336 kts | 74° |
| 2026-04-26 19:56 | 52.16466 | 24.72335 | 13110 ft | 337 kts | 73° |
| 2026-04-26 19:57 | 52.16763 | 24.76139 | 13113 ft | 336 kts | 73° |
| 2026-04-26 19:57 | 52.17056 | 24.79895 | 13113 ft | 336 kts | 74° |
| 2026-04-26 19:57 | 52.17348 | 24.83661 | 13108 ft | 336 kts | 73° |
| 2026-04-26 19:57 | 52.17644 | 24.87466 | 13100 ft | 335 kts | 73° |
| 2026-04-26 19:58 | 52.17940 | 24.91284 | 13102 ft | 336 kts | 73° |
| 2026-04-26 19:58 | 52.18233 | 24.95090 | 13096 ft | 337 kts | 73° |
| 2026-04-26 19:58 | 52.18522 | 24.98874 | 13096 ft | 337 kts | 73° |
| 2026-04-26 19:58 | 52.18835 | 25.02696 | 13139 ft | 337 kts | 71° |
| 2026-04-26 19:59 | 52.19303 | 25.06491 | 13653 ft | 340 kts | 67° |
| 2026-04-26 19:59 | 52.21232 | 25.17476 | 15989 ft | 343 kts | 62° |
| 2026-04-26 20:00 | 52.21920 | 25.21269 | 16662 ft | 348 kts | 62° |
| 2026-04-26 20:00 | 52.22597 | 25.25017 | 17309 ft | 351 kts | 62° |
| 2026-04-26 20:00 | 52.23285 | 25.28841 | 17920 ft | 356 kts | 61° |
| 2026-04-26 20:00 | 52.23975 | 25.32706 | 18544 ft | 359 kts | 60° |
| 2026-04-26 20:01 | 52.24681 | 25.36651 | 19133 ft | 363 kts | 60° |
| 2026-04-26 20:01 | 52.25389 | 25.40615 | 19685 ft | 368 kts | 60° |
| 2026-04-26 20:01 | 52.26103 | 25.44616 | 20291 ft | 371 kts | 60° |
| 2026-04-26 20:01 | 52.26823 | 25.48664 | 20846 ft | 376 kts | 60° |
| 2026-04-26 20:02 | 52.27554 | 25.52783 | 21401 ft | 380 kts | 60° |
| 2026-04-26 20:02 | 52.28282 | 25.56926 | 22027 ft | 382 kts | 60° |
| 2026-04-26 20:02 | 52.29002 | 25.61035 | 22585 ft | 385 kts | 59° |
| 2026-04-26 20:02 | 52.29252 | 25.62461 | 22768 ft | 386 kts | 59° |
| 2026-04-26 20:03 | 52.30494 | 25.69534 | 23503 ft | 396 kts | 60° |
| 2026-04-26 20:03 | 52.31249 | 25.73878 | 24040 ft | 398 kts | 60° |
| 2026-04-26 20:03 | 52.32008 | 25.78258 | 24624 ft | 400 kts | 60° |